Torre De Belem — CSIO — position and weather

sailwx.info

Track history (hours):
 
Tides and Currents Weather Stations Pressure Air Temp Water Temp Dewpoint Dewpoint Depression Visibility Wind Speed Wind Dir Waves Ship Positions

Torre De Belem

Last reported at 2017-Sep-22 02:00 UTC. Time now 2017-Sep-22 18:55 UTC.
Position N 38°42' W 009°14'.

Length 14 m.

MMSI: 263671850.

Date/timePositionNaut miles runAvg speedWind from/ knotsBaromVisibWave heightAir tempDewpointWater temp
2017-Sep-22 02:00N 38°42' W 009°14'0 0.0
2017-Sep-22 01:30N 38°42' W 009°14'2 5.0
2017-Sep-22 01:01N 38°41' W 009°11'2 4.9
2017-Sep-22 00:30N 38°42' W 009°14'1 1.3
2017-Sep-22 00:00N 38°41' W 009°13'1 1.2
2017-Sep-21 23:30N 38°42' W 009°14'0 0.0
2017-Sep-21 23:00N 38°42' W 009°14'0 0.0
2017-Sep-21 22:30N 38°42' W 009°14'0 0.0
2017-Sep-21 21:59N 38°42' W 009°14'0 0.0
2017-Sep-21 21:30N 38°42' W 009°14'0 0.0
2017-Sep-21 21:00N 38°42' W 009°14'0 0.0
2017-Sep-21 20:30N 38°42' W 009°14'0 0.0
2017-Sep-21 20:00N 38°42' W 009°14'0 0.0
2017-Sep-21 19:30N 38°42' W 009°14'0 0.0
2017-Sep-21 19:00N 38°42' W 009°14'0 0.0
2017-Sep-21 18:30N 38°42' W 009°14'0 0.0
2017-Sep-21 18:00N 38°42' W 009°14'0 0.0
2017-Sep-21 17:30N 38°42' W 009°14'0 0.0
2017-Sep-21 17:00N 38°42' W 009°14'0 0.0
2017-Sep-21 16:30N 38°42' W 009°14'0 0.0
2017-Sep-21 16:00N 38°42' W 009°14'0 0.0
2017-Sep-21 15:30N 38°42' W 009°14'0 0.0
2017-Sep-21 14:59N 38°42' W 009°14'0 0.0
2017-Sep-21 14:29N 38°42' W 009°14'0 0.0
2017-Sep-21 13:58N 38°42' W 009°14'0 0.0
2017-Sep-21 13:30N 38°42' W 009°14'0 0.0
2017-Sep-21 12:58N 38°42' W 009°14'0 0.0
2017-Sep-21 12:30N 38°42' W 009°14'0 0.0
2017-Sep-21 12:00N 38°42' W 009°14'0 0.0
2017-Sep-21 11:30N 38°42' W 009°14'0 0.0
2017-Sep-21 11:00N 38°42' W 009°14'0 0.0
2017-Sep-21 10:30N 38°42' W 009°14'0 0.0
2017-Sep-21 09:59N 38°42' W 009°14'0 0.0
2017-Sep-21 09:30N 38°42' W 009°14'0 0.0
2017-Sep-21 09:00N 38°42' W 009°14'0 0.0
2017-Sep-21 08:30N 38°42' W 009°14'0 0.0
2017-Sep-21 08:00N 38°42' W 009°14'0 0.0
2017-Sep-21 07:29N 38°42' W 009°14'0 0.0
2017-Sep-21 07:00N 38°42' W 009°14'0 0.0
2017-Sep-21 06:30N 38°42' W 009°14'1 1.3
2017-Sep-21 06:00N 38°41' W 009°15'1 0.1
2017-Sep-20 20:56N 38°42' W 009°14'512.3
2017-Sep-20 20:30N 38°39' W 009°20'1 1.4
2017-Sep-20 20:01N 38°40' W 009°19'5 9.1
2017-Sep-20 19:30N 38°42' W 009°14'0 0.0
2017-Sep-20 19:00N 38°42' W 009°14'0 0.0
2017-Sep-20 18:30N 38°42' W 009°14'0 0.0
2017-Sep-20 18:01N 38°42' W 009°14'0 0.0
2017-Sep-20 17:30N 38°42' W 009°14'0 0.0
2017-Sep-20 17:00N 38°42' W 009°14'0 0.0
2017-Sep-20 16:30N 38°42' W 009°14'0 0.0
2017-Sep-20 16:00N 38°42' W 009°14'0 0.0
2017-Sep-20 15:30N 38°42' W 009°14'0 0.0
2017-Sep-20 15:00N 38°42' W 009°14'0 0.0
2017-Sep-20 14:00N 38°42' W 009°14'0 0.0
2017-Sep-20 13:31N 38°42' W 009°14'0 0.0
2017-Sep-20 13:00N 38°42' W 009°14'0 0.0
2017-Sep-20 12:30N 38°42' W 009°14'0 0.0
2017-Sep-20 12:00N 38°42' W 009°14'0 0.0
2017-Sep-20 11:30N 38°42' W 009°14'0 0.0
2017-Sep-20 11:00N 38°42' W 009°14'0 0.0
2017-Sep-20 10:30N 38°42' W 009°14'0 0.0
2017-Sep-20 10:00N 38°42' W 009°14'0 0.0
2017-Sep-20 09:30N 38°42' W 009°14'0 0.0
2017-Sep-20 09:00N 38°42' W 009°14'0 0.0
2017-Sep-20 08:30N 38°42' W 009°14'2 4.3
2017-Sep-20 08:00N 38°41' W 009°12'2 0.3
2017-Sep-20 00:35N 38°42' W 009°14'0 2.9
2017-Sep-20 00:30N 38°42' W 009°14'0 0.4
2017-Sep-20 00:00N 38°42' W 009°14'1 2.4
2017-Sep-19 23:30N 38°41' W 009°13'3 6.3
2017-Sep-19 23:00N 38°42' W 009°09'2 4.0
2017-Sep-19 22:30N 38°41' W 009°11'3 5.0
2017-Sep-19 22:00N 38°42' W 009°14'0 0.0
2017-Sep-19 21:30N 38°42' W 009°14'714.6
2017-Sep-19 21:00N 38°39' W 009°23'2 4.2
2017-Sep-19 20:30N 38°40' W 009°20'510.1
2017-Sep-19 20:00N 38°42' W 009°14'0 0.0
2017-Sep-19 19:30N 38°42' W 009°14'0 0.0
2017-Sep-19 19:00N 38°42' W 009°14'0 0.0
2017-Sep-19 18:30N 38°42' W 009°14'0 0.0
2017-Sep-19 17:59N 38°42' W 009°14'1 1.4
2017-Sep-19 17:30N 38°42' W 009°15'611.3
2017-Sep-19 17:01N 38°38' W 009°21'713.3
2017-Sep-19 16:30N 38°41' W 009°13'0 0.8
2017-Sep-19 16:00N 38°41' W 009°13'1 1.1
2017-Sep-19 15:30N 38°41' W 009°13'3 5.9
2017-Sep-19 15:00N 38°42' W 009°09'4 7.1
2017-Sep-19 14:29N 38°42' W 009°14'0 0.0
2017-Sep-19 13:59N 38°42' W 009°14'1 2.8
2017-Sep-19 13:30N 38°41' W 009°13'917.7
2017-Sep-19 13:00N 38°37' W 009°23'612.3
2017-Sep-19 12:30N 38°41' W 009°17'2 3.9
2017-Sep-19 11:59N 38°42' W 009°14'0 0.0
2017-Sep-19 11:30N 38°42' W 009°14'0 0.0
2017-Sep-19 11:00N 38°42' W 009°14'0 0.0
2017-Sep-19 10:30N 38°42' W 009°14'4 8.5
2017-Sep-19 10:00N 38°42' W 009°09'4 8.5
2017-Sep-19 09:30N 38°42' W 009°14'0 0.0
2017-Sep-19 08:59N 38°42' W 009°14'0 0.0
2017-Sep-19 08:30N 38°42' W 009°14'2 4.3
2017-Sep-19 08:00N 38°41' W 009°12'1 2.6
2017-Sep-19 07:30N 38°41' W 009°13'1 1.7
2017-Sep-19 07:00N 38°42' W 009°14'0 0.0
2017-Sep-19 06:30N 38°42' W 009°14'0 0.0
2017-Sep-19 06:00N 38°42' W 009°14'0 0.0
2017-Sep-19 05:30N 38°42' W 009°14'0 0.0
2017-Sep-19 04:59N 38°42' W 009°14'5 9.9
2017-Sep-19 04:30N 38°39' W 009°19'3 5.1
2017-Sep-19 04:00N 38°38' W 009°22'714.8
2017-Sep-19 03:30N 38°41' W 009°14'1 1.1
2017-Sep-19 03:00N 38°42' W 009°14'0 0.0
2017-Sep-19 02:30N 38°42' W 009°14'0 0.0
2017-Sep-19 02:00N 38°42' W 009°14'0 0.0
2017-Sep-19 01:30N 38°42' W 009°14'0 0.0
2017-Sep-19 01:00N 38°42' W 009°14'0 0.0
2017-Sep-19 00:30N 38°42' W 009°14'0 0.0
2017-Sep-19 00:00N 38°42' W 009°14'0 0.0
2017-Sep-18 23:30N 38°42' W 009°14'0 0.0
2017-Sep-18 23:00N 38°42' W 009°14'0 0.0
2017-Sep-18 22:30N 38°42' W 009°14'0 0.0
2017-Sep-18 22:00N 38°42' W 009°14'0 0.0
2017-Sep-18 21:30N 38°42' W 009°14'0 0.0
2017-Sep-18 21:00N 38°42' W 009°14'0 0.0
2017-Sep-18 20:30N 38°42' W 009°14'0 0.0
2017-Sep-18 20:00N 38°42' W 009°14'0 0.0
2017-Sep-18 19:30N 38°42' W 009°14'0 0.0
2017-Sep-18 19:00N 38°42' W 009°14'0 0.0
2017-Sep-18 18:30N 38°42' W 009°14'0 0.3
2017-Sep-18 18:00N 38°42' W 009°14'815.1
2017-Sep-18 17:30N 38°37' W 009°22'815.1
2017-Sep-18 17:00N 38°42' W 009°14'0 0.3
2017-Sep-18 16:30N 38°42' W 009°14'0 0.0
2017-Sep-18 16:00N 38°42' W 009°14'0 0.0
2017-Sep-18 15:30N 38°42' W 009°14'0 0.5
2017-Sep-18 15:00N 38°42' W 009°14'0 0.8
2017-Sep-18 14:30N 38°41' W 009°13'1 1.3
2017-Sep-18 14:00N 38°41' W 009°13'0 0.6
2017-Sep-18 13:30N 38°42' W 009°12'2 3.1
2017-Sep-18 13:00N 38°42' W 009°14'0 0.0
2017-Sep-18 12:31N 38°42' W 009°14'0 0.0
2017-Sep-18 12:00N 38°42' W 009°14'0 0.0
2017-Sep-18 11:29N 38°42' W 009°14'1 2.1
2017-Sep-18 11:00N 38°41' W 009°13'1 2.8
2017-Sep-18 10:29N 38°41' W 009°11'2 5.0
2017-Sep-18 10:00N 38°42' W 009°14'0 0.0
2017-Sep-18 09:30N 38°42' W 009°14'0 0.0
2017-Sep-18 08:59N 38°42' W 009°14'510.5
2017-Sep-18 08:28N 38°43' W 009°07'0 0.6
2017-Sep-18 08:00N 38°43' W 009°08'1 1.3
2017-Sep-18 07:31N 38°43' W 009°07'611.7
2017-Sep-18 07:00N 38°41' W 009°14'0 1.0
2017-Sep-18 06:30N 38°42' W 009°14'0 0.1
2017-Sep-18 06:00N 38°42' W 009°14'1 1.5
2017-Sep-18 05:30N 38°41' W 009°13'1 1.5
2017-Sep-18 04:59N 38°42' W 009°14'0 0.0
2017-Sep-18 04:30N 38°42' W 009°14'0 0.0
2017-Sep-18 04:00N 38°42' W 009°14'0 0.0
2017-Sep-18 03:29N 38°42' W 009°14'0 0.0
2017-Sep-18 03:00N 38°42' W 009°14'0 0.0
2017-Sep-18 02:30N 38°42' W 009°14'0 0.0
2017-Sep-18 02:00N 38°42' W 009°14'0 0.0
2017-Sep-18 01:30N 38°42' W 009°14'0 0.0
2017-Sep-18 01:00N 38°42' W 009°14'0 0.0
2017-Sep-18 00:30N 38°42' W 009°14'0 0.0
2017-Sep-17 23:59N 38°42' W 009°14'0 0.0
2017-Sep-17 23:30N 38°42' W 009°14'0 0.0
2017-Sep-17 23:00N 38°42' W 009°14'0 0.0
2017-Sep-17 22:30N 38°42' W 009°14'0 0.0
2017-Sep-17 21:59N 38°42' W 009°14'0 0.0
2017-Sep-17 15:07N 38°42' W 009°14'0 0.5
2017-Sep-17 15:00N 38°42' W 009°14'815.5
2017-Sep-17 14:30N 38°37' W 009°22'611.7
2017-Sep-17 14:00N 38°41' W 009°17'4 8.8
2017-Sep-17 13:30N 38°41' W 009°11'3 5.2
2017-Sep-17 13:00N 38°42' W 009°14'0 0.0
2017-Sep-17 12:30N 38°42' W 009°14'0 0.0
2017-Sep-17 12:00N 38°42' W 009°14'0 0.0
2017-Sep-17 11:30N 38°42' W 009°14'1 2.1
2017-Sep-17 11:00N 38°41' W 009°13'918.1
2017-Sep-17 10:30N 38°40' W 009°24'612.6
2017-Sep-17 10:00N 38°42' W 009°17'2 4.0
2017-Sep-17 09:30N 38°42' W 009°14'0 0.0
2017-Sep-17 09:00N 38°42' W 009°14'0 0.0
2017-Sep-17 08:30N 38°42' W 009°14'0 0.0
2017-Sep-17 08:00N 38°42' W 009°14'0 0.0
2017-Sep-17 07:30N 38°42' W 009°14'0 0.0
2017-Sep-17 07:00N 38°42' W 009°14'0 0.0
2017-Sep-16 23:03N 38°42' W 009°14'0 0.0
2017-Sep-16 23:00N 38°42' W 009°14'0 0.0
2017-Sep-16 22:30N 38°42' W 009°14'0 0.0
2017-Sep-16 22:00N 38°42' W 009°14'0 0.0
2017-Sep-16 21:30N 38°42' W 009°14'0 0.0
2017-Sep-16 21:00N 38°42' W 009°14'0 0.0
2017-Sep-16 20:30N 38°42' W 009°14'1 1.3
2017-Sep-16 20:00N 38°41' W 009°15'816.1
2017-Sep-16 19:30N 38°40' W 009°25'1 0.1
2017-Sep-16 09:09N 38°42' W 009°25'1 5.0
2017-Sep-16 09:00N 38°41' W 009°24'1 1.5
2017-Sep-16 08:30N 38°42' W 009°25'0 0.0
2017-Sep-16 08:00N 38°42' W 009°25'0 0.0
2017-Sep-16 07:30N 38°42' W 009°25'0 0.0
2017-Sep-16 07:00N 38°42' W 009°25'0 0.0
2017-Sep-16 06:30N 38°42' W 009°25'0 0.0
2017-Sep-16 06:00N 38°42' W 009°25'4 7.9
2017-Sep-16 05:30N 38°38' W 009°23'4 7.9
2017-Sep-16 05:01N 38°42' W 009°25'0 0.0
2017-Sep-15 22:10N 38°42' W 009°25'210.1
2017-Sep-15 22:00N 38°40' W 009°24'2 0.1
2017-Sep-15 10:18N 38°42' W 009°25'2 8.1
2017-Sep-15 10:01N 38°39' W 009°26'3 5.0
2017-Sep-15 09:30N 38°42' W 009°25'0 0.2
2017-Sep-15 09:01N 38°42' W 009°25'0 0.0
2017-Sep-15 08:30N 38°42' W 009°25'0 0.0
2017-Sep-15 08:01N 38°42' W 009°25'0 0.0
2017-Sep-15 07:31N 38°42' W 009°25'0 0.0
2017-Sep-15 07:00N 38°42' W 009°25'0 0.0
2017-Sep-15 06:30N 38°42' W 009°25'0 0.0
2017-Sep-15 06:00N 38°42' W 009°25'0 0.0
2017-Sep-15 05:30N 38°42' W 009°25'0 0.0
2017-Sep-15 05:00N 38°42' W 009°25'0 0.0
2017-Sep-15 04:30N 38°42' W 009°25'0 0.0
2017-Sep-15 04:01N 38°42' W 009°25'0 0.0
2017-Sep-15 03:31N 38°42' W 009°25'0 0.0
2017-Sep-15 03:01N 38°42' W 009°25'0 0.0
2017-Sep-15 02:31N 38°42' W 009°25'0 0.0
2017-Sep-15 02:01N 38°42' W 009°25'0 0.0
2017-Sep-15 01:30N 38°42' W 009°25'0 0.0
2017-Sep-15 01:01N 38°42' W 009°25'0 0.0
2017-Sep-15 00:29N 38°42' W 009°25'0 0.0
2017-Sep-15 00:00N 38°42' W 009°25'0 0.0
2017-Sep-14 23:30N 38°42' W 009°25'0 0.0
2017-Sep-14 23:00N 38°42' W 009°25'0 0.0
2017-Sep-14 22:30N 38°42' W 009°25'4 8.8
2017-Sep-14 22:00N 38°40' W 009°19'4 9.1
2017-Sep-14 21:30N 38°42' W 009°14'0 0.0
2017-Sep-14 21:00N 38°42' W 009°14'0 0.0
2017-Sep-14 20:29N 38°42' W 009°14'713.8
2017-Sep-14 20:00N 38°41' W 009°22'3 5.7
2017-Sep-14 19:26N 38°38' W 009°22'716.1
2017-Sep-14 19:00N 38°41' W 009°15'1 1.2
2017-Sep-14 18:30N 38°42' W 009°14'0 0.0
2017-Sep-14 18:00N 38°42' W 009°14'0 0.0
2017-Sep-14 17:30N 38°42' W 009°14'2 3.8
2017-Sep-14 17:00N 38°41' W 009°12'2 4.1
2017-Sep-14 16:31N 38°41' W 009°14'0 0.7
2017-Sep-14 16:00N 38°42' W 009°14'0 0.0
2017-Sep-14 15:30N 38°42' W 009°14'0 0.0
2017-Sep-14 15:00N 38°42' W 009°14'0 0.0
2017-Sep-14 14:29N 38°42' W 009°14'0 0.0
2017-Sep-14 14:00N 38°42' W 009°14'0 0.0
2017-Sep-14 13:30N 38°42' W 009°14'0 0.0
2017-Sep-14 13:00N 38°42' W 009°14'0 0.0
2017-Sep-14 12:30N 38°42' W 009°14'0 0.0
2017-Sep-14 12:00N 38°42' W 009°14'0 0.0
2017-Sep-14 11:27N 38°42' W 009°14'0 0.0
2017-Sep-14 10:59N 38°42' W 009°14'0 0.0
2017-Sep-14 10:31N 38°42' W 009°14'0 0.0
2017-Sep-14 10:00N 38°42' W 009°14'0 0.0
2017-Sep-14 09:29N 38°42' W 009°14'0 0.0
2017-Sep-14 08:59N 38°42' W 009°14'0 0.0
2017-Sep-14 08:29N 38°42' W 009°14'0 0.0
2017-Sep-14 08:00N 38°42' W 009°14'2 4.2
2017-Sep-14 07:30N 38°41' W 009°12'2 4.4
2017-Sep-14 07:00N 38°42' W 009°14'611.5
2017-Sep-14 06:31N 38°40' W 009°21'2 4.1
2017-Sep-14 06:00N 38°41' W 009°19'4 7.4
2017-Sep-14 05:30N 38°42' W 009°14'0 0.0
2017-Sep-14 05:00N 38°42' W 009°14'0 0.0
2017-Sep-14 04:30N 38°42' W 009°14'0 0.0
2017-Sep-14 03:59N 38°42' W 009°14'0 0.0
2017-Sep-14 03:30N 38°42' W 009°14'0 0.0
2017-Sep-14 03:00N 38°42' W 009°14'0 0.0
2017-Sep-14 02:30N 38°42' W 009°14'0 0.0
2017-Sep-14 02:00N 38°42' W 009°14'0 0.0
2017-Sep-14 01:30N 38°42' W 009°14'0 0.0
2017-Sep-14 01:00N 38°42' W 009°14'0 0.0
2017-Sep-14 00:30N 38°42' W 009°14'0 0.0
2017-Sep-14 00:00N 38°42' W 009°14'0 0.0
2017-Sep-13 23:30N 38°42' W 009°14'1 1.9
2017-Sep-13 23:00N 38°41' W 009°13'0 0.2
2017-Sep-13 22:30N 38°41' W 009°13'1 1.7
2017-Sep-13 22:00N 38°42' W 009°14'0 0.0
2017-Sep-13 21:31N 38°42' W 009°14'0 0.0
2017-Sep-13 21:01N 38°42' W 009°14'0 0.0
2017-Sep-13 20:30N 38°42' W 009°14'0 0.0
2017-Sep-13 20:00N 38°42' W 009°14'0 0.2
2017-Sep-13 19:30N 38°42' W 009°14'816.3
2017-Sep-13 19:00N 38°39' W 009°24'3 0.7
2017-Sep-13 14:34N 38°42' W 009°25'0 1.9
2017-Sep-13 14:30N 38°42' W 009°25'3 6.1
2017-Sep-13 14:00N 38°39' W 009°23'3 6.1
2017-Sep-13 13:31N 38°42' W 009°25'4 8.0
2017-Sep-13 13:00N 38°38' W 009°25'4 1.5
2017-Sep-13 10:15N 38°42' W 009°25'0 0.0
2017-Sep-13 10:00N 38°42' W 009°25'2 3.0
2017-Sep-13 09:30N 38°40' W 009°24'2 2.9
2017-Sep-13 09:00N 38°42' W 009°25'0 0.0
2017-Sep-13 06:00N 38°42' W 009°25'0 0.0
2017-Sep-12 22:51N 38°42' W 009°25'410.8
2017-Sep-12 22:30N 38°38' W 009°23'4 7.5
2017-Sep-12 22:00N 38°42' W 009°25'0 0.0
2017-Sep-12 20:05N 38°42' W 009°25'0 1.6
2017-Sep-12 20:00N 38°42' W 009°25'4 8.1
2017-Sep-12 19:30N 38°38' W 009°22'4 0.7
2017-Sep-12 13:55N 38°42' W 009°25'3 6.4
2017-Sep-12 13:30N 38°40' W 009°23'714.3
2017-Sep-12 13:00N 38°42' W 009°14'0 0.0
2017-Sep-12 12:30N 38°42' W 009°14'0 0.0
2017-Sep-12 12:00N 38°42' W 009°14'0 0.0
2017-Sep-12 11:29N 38°42' W 009°14'0 0.0
2017-Sep-12 11:00N 38°42' W 009°14'2 4.3
2017-Sep-12 10:30N 38°41' W 009°12'1 2.0
2017-Sep-12 10:00N 38°42' W 009°12'4 7.0
2017-Sep-12 09:27N 38°43' W 009°07'2 3.9
2017-Sep-12 08:58N 38°42' W 009°10'3 1.8
2017-Sep-12 07:00N 38°42' W 009°14'0 0.0
2017-Sep-12 06:30N 38°42' W 009°14'0 0.0
2017-Sep-12 06:01N 38°42' W 009°14'815.1
2017-Sep-12 05:30N 38°38' W 009°22'1 2.6
2017-Sep-12 05:01N 38°39' W 009°23'4 8.7
2017-Sep-12 04:31N 38°41' W 009°18'  
Track history (hours):
 
Tides and Currents Weather Stations Pressure Air Temp Water Temp Dewpoint Dewpoint Depression Visibility Wind Speed Wind Dir Waves Ship Positions

Torre De Belem

Last reported at 2017-Sep-22 02:00 UTC. Time now 2017-Sep-22 18:55 UTC.
Position N 38°42' W 009°14'.

Length 14 m.

MMSI: 263671850.

Date/timePositionNaut miles runAvg speedWind from/ knotsBaromVisibWave heightAir tempDewpointWater temp
2017-Sep-22 02:00N 38°42' W 009°14'0 0.0
2017-Sep-22 01:30N 38°42' W 009°14'2 5.0
2017-Sep-22 01:01N 38°41' W 009°11'2 4.9
2017-Sep-22 00:30N 38°42' W 009°14'1 1.3
2017-Sep-22 00:00N 38°41' W 009°13'1 1.2
2017-Sep-21 23:30N 38°42' W 009°14'0 0.0
2017-Sep-21 23:00N 38°42' W 009°14'0 0.0
2017-Sep-21 22:30N 38°42' W 009°14'0 0.0
2017-Sep-21 21:59N 38°42' W 009°14'0 0.0
2017-Sep-21 21:30N 38°42' W 009°14'0 0.0
2017-Sep-21 21:00N 38°42' W 009°14'0 0.0
2017-Sep-21 20:30N 38°42' W 009°14'0 0.0
2017-Sep-21 20:00N 38°42' W 009°14'0 0.0
2017-Sep-21 19:30N 38°42' W 009°14'0 0.0
2017-Sep-21 19:00N 38°42' W 009°14'0 0.0
2017-Sep-21 18:30N 38°42' W 009°14'0 0.0
2017-Sep-21 18:00N 38°42' W 009°14'0 0.0
2017-Sep-21 17:30N 38°42' W 009°14'0 0.0
2017-Sep-21 17:00N 38°42' W 009°14'0 0.0
2017-Sep-21 16:30N 38°42' W 009°14'0 0.0
2017-Sep-21 16:00N 38°42' W 009°14'0 0.0
2017-Sep-21 15:30N 38°42' W 009°14'0 0.0
2017-Sep-21 14:59N 38°42' W 009°14'0 0.0
2017-Sep-21 14:29N 38°42' W 009°14'0 0.0
2017-Sep-21 13:58N 38°42' W 009°14'0 0.0
2017-Sep-21 13:30N 38°42' W 009°14'0 0.0
2017-Sep-21 12:58N 38°42' W 009°14'0 0.0
2017-Sep-21 12:30N 38°42' W 009°14'0 0.0
2017-Sep-21 12:00N 38°42' W 009°14'0 0.0
2017-Sep-21 11:30N 38°42' W 009°14'0 0.0
2017-Sep-21 11:00N 38°42' W 009°14'0 0.0
2017-Sep-21 10:30N 38°42' W 009°14'0 0.0
2017-Sep-21 09:59N 38°42' W 009°14'0 0.0
2017-Sep-21 09:30N 38°42' W 009°14'0 0.0
2017-Sep-21 09:00N 38°42' W 009°14'0 0.0
2017-Sep-21 08:30N 38°42' W 009°14'0 0.0
2017-Sep-21 08:00N 38°42' W 009°14'0 0.0
2017-Sep-21 07:29N 38°42' W 009°14'0 0.0
2017-Sep-21 07:00N 38°42' W 009°14'0 0.0
2017-Sep-21 06:30N 38°42' W 009°14'1 1.3
2017-Sep-21 06:00N 38°41' W 009°15'1 0.1
2017-Sep-20 20:56N 38°42' W 009°14'512.3
2017-Sep-20 20:30N 38°39' W 009°20'1 1.4
2017-Sep-20 20:01N 38°40' W 009°19'5 9.1
2017-Sep-20 19:30N 38°42' W 009°14'0 0.0
2017-Sep-20 19:00N 38°42' W 009°14'0 0.0
2017-Sep-20 18:30N 38°42' W 009°14'0 0.0
2017-Sep-20 18:01N 38°42' W 009°14'0 0.0
2017-Sep-20 17:30N 38°42' W 009°14'0 0.0
2017-Sep-20 17:00N 38°42' W 009°14'0 0.0
2017-Sep-20 16:30N 38°42' W 009°14'0 0.0
2017-Sep-20 16:00N 38°42' W 009°14'0 0.0
2017-Sep-20 15:30N 38°42' W 009°14'0 0.0
2017-Sep-20 15:00N 38°42' W 009°14'0 0.0
2017-Sep-20 14:00N 38°42' W 009°14'0 0.0
2017-Sep-20 13:31N 38°42' W 009°14'0 0.0
2017-Sep-20 13:00N 38°42' W 009°14'0 0.0
2017-Sep-20 12:30N 38°42' W 009°14'0 0.0
2017-Sep-20 12:00N 38°42' W 009°14'0 0.0
2017-Sep-20 11:30N 38°42' W 009°14'0 0.0
2017-Sep-20 11:00N 38°42' W 009°14'0 0.0
2017-Sep-20 10:30N 38°42' W 009°14'0 0.0
2017-Sep-20 10:00N 38°42' W 009°14'0 0.0
2017-Sep-20 09:30N 38°42' W 009°14'0 0.0
2017-Sep-20 09:00N 38°42' W 009°14'0 0.0
2017-Sep-20 08:30N 38°42' W 009°14'2 4.3
2017-Sep-20 08:00N 38°41' W 009°12'2 0.3
2017-Sep-20 00:35N 38°42' W 009°14'0 2.9
2017-Sep-20 00:30N 38°42' W 009°14'0 0.4
2017-Sep-20 00:00N 38°42' W 009°14'1 2.4
2017-Sep-19 23:30N 38°41' W 009°13'3 6.3
2017-Sep-19 23:00N 38°42' W 009°09'2 4.0
2017-Sep-19 22:30N 38°41' W 009°11'3 5.0
2017-Sep-19 22:00N 38°42' W 009°14'0 0.0
2017-Sep-19 21:30N 38°42' W 009°14'714.6
2017-Sep-19 21:00N 38°39' W 009°23'2 4.2
2017-Sep-19 20:30N 38°40' W 009°20'510.1
2017-Sep-19 20:00N 38°42' W 009°14'0 0.0
2017-Sep-19 19:30N 38°42' W 009°14'0 0.0
2017-Sep-19 19:00N 38°42' W 009°14'0 0.0
2017-Sep-19 18:30N 38°42' W 009°14'0 0.0
2017-Sep-19 17:59N 38°42' W 009°14'1 1.4
2017-Sep-19 17:30N 38°42' W 009°15'611.3
2017-Sep-19 17:01N 38°38' W 009°21'713.3
2017-Sep-19 16:30N 38°41' W 009°13'0 0.8
2017-Sep-19 16:00N 38°41' W 009°13'1 1.1
2017-Sep-19 15:30N 38°41' W 009°13'3 5.9
2017-Sep-19 15:00N 38°42' W 009°09'4 7.1
2017-Sep-19 14:29N 38°42' W 009°14'0 0.0
2017-Sep-19 13:59N 38°42' W 009°14'1 2.8
2017-Sep-19 13:30N 38°41' W 009°13'917.7
2017-Sep-19 13:00N 38°37' W 009°23'612.3
2017-Sep-19 12:30N 38°41' W 009°17'2 3.9
2017-Sep-19 11:59N 38°42' W 009°14'0 0.0
2017-Sep-19 11:30N 38°42' W 009°14'0 0.0
2017-Sep-19 11:00N 38°42' W 009°14'0 0.0
2017-Sep-19 10:30N 38°42' W 009°14'4 8.5
2017-Sep-19 10:00N 38°42' W 009°09'4 8.5
2017-Sep-19 09:30N 38°42' W 009°14'0 0.0
2017-Sep-19 08:59N 38°42' W 009°14'0 0.0
2017-Sep-19 08:30N 38°42' W 009°14'2 4.3
2017-Sep-19 08:00N 38°41' W 009°12'1 2.6
2017-Sep-19 07:30N 38°41' W 009°13'1 1.7
2017-Sep-19 07:00N 38°42' W 009°14'0 0.0
2017-Sep-19 06:30N 38°42' W 009°14'0 0.0
2017-Sep-19 06:00N 38°42' W 009°14'0 0.0
2017-Sep-19 05:30N 38°42' W 009°14'0 0.0
2017-Sep-19 04:59N 38°42' W 009°14'5 9.9
2017-Sep-19 04:30N 38°39' W 009°19'3 5.1
2017-Sep-19 04:00N 38°38' W 009°22'714.8
2017-Sep-19 03:30N 38°41' W 009°14'1 1.1
2017-Sep-19 03:00N 38°42' W 009°14'0 0.0
2017-Sep-19 02:30N 38°42' W 009°14'0 0.0
2017-Sep-19 02:00N 38°42' W 009°14'0 0.0
2017-Sep-19 01:30N 38°42' W 009°14'0 0.0
2017-Sep-19 01:00N 38°42' W 009°14'0 0.0
2017-Sep-19 00:30N 38°42' W 009°14'0 0.0
2017-Sep-19 00:00N 38°42' W 009°14'0 0.0
2017-Sep-18 23:30N 38°42' W 009°14'0 0.0
2017-Sep-18 23:00N 38°42' W 009°14'0 0.0
2017-Sep-18 22:30N 38°42' W 009°14'0 0.0
2017-Sep-18 22:00N 38°42' W 009°14'0 0.0
2017-Sep-18 21:30N 38°42' W 009°14'0 0.0
2017-Sep-18 21:00N 38°42' W 009°14'0 0.0
2017-Sep-18 20:30N 38°42' W 009°14'0 0.0
2017-Sep-18 20:00N 38°42' W 009°14'0 0.0
2017-Sep-18 19:30N 38°42' W 009°14'0 0.0
2017-Sep-18 19:00N 38°42' W 009°14'0 0.0
2017-Sep-18 18:30N 38°42' W 009°14'0 0.3
2017-Sep-18 18:00N 38°42' W 009°14'815.1
2017-Sep-18 17:30N 38°37' W 009°22'815.1
2017-Sep-18 17:00N 38°42' W 009°14'0 0.3
2017-Sep-18 16:30N 38°42' W 009°14'0 0.0
2017-Sep-18 16:00N 38°42' W 009°14'0 0.0
2017-Sep-18 15:30N 38°42' W 009°14'0 0.5
2017-Sep-18 15:00N 38°42' W 009°14'0 0.8
2017-Sep-18 14:30N 38°41' W 009°13'1 1.3
2017-Sep-18 14:00N 38°41' W 009°13'0 0.6
2017-Sep-18 13:30N 38°42' W 009°12'2 3.1
2017-Sep-18 13:00N 38°42' W 009°14'0 0.0
2017-Sep-18 12:31N 38°42' W 009°14'0 0.0
2017-Sep-18 12:00N 38°42' W 009°14'0 0.0
2017-Sep-18 11:29N 38°42' W 009°14'1 2.1
2017-Sep-18 11:00N 38°41' W 009°13'1 2.8
2017-Sep-18 10:29N 38°41' W 009°11'2 5.0
2017-Sep-18 10:00N 38°42' W 009°14'0 0.0
2017-Sep-18 09:30N 38°42' W 009°14'0 0.0
2017-Sep-18 08:59N 38°42' W 009°14'510.5
2017-Sep-18 08:28N 38°43' W 009°07'0 0.6
2017-Sep-18 08:00N 38°43' W 009°08'1 1.3
2017-Sep-18 07:31N 38°43' W 009°07'611.7
2017-Sep-18 07:00N 38°41' W 009°14'0 1.0
2017-Sep-18 06:30N 38°42' W 009°14'0 0.1
2017-Sep-18 06:00N 38°42' W 009°14'1 1.5
2017-Sep-18 05:30N 38°41' W 009°13'1 1.5
2017-Sep-18 04:59N 38°42' W 009°14'0 0.0
2017-Sep-18 04:30N 38°42' W 009°14'0 0.0
2017-Sep-18 04:00N 38°42' W 009°14'0 0.0
2017-Sep-18 03:29N 38°42' W 009°14'0 0.0
2017-Sep-18 03:00N 38°42' W 009°14'0 0.0
2017-Sep-18 02:30N 38°42' W 009°14'0 0.0
2017-Sep-18 02:00N 38°42' W 009°14'0 0.0
2017-Sep-18 01:30N 38°42' W 009°14'0 0.0
2017-Sep-18 01:00N 38°42' W 009°14'0 0.0
2017-Sep-18 00:30N 38°42' W 009°14'0 0.0
2017-Sep-17 23:59N 38°42' W 009°14'0 0.0
2017-Sep-17 23:30N 38°42' W 009°14'0 0.0
2017-Sep-17 23:00N 38°42' W 009°14'0 0.0
2017-Sep-17 22:30N 38°42' W 009°14'0 0.0
2017-Sep-17 21:59N 38°42' W 009°14'0 0.0
2017-Sep-17 15:07N 38°42' W 009°14'0 0.5
2017-Sep-17 15:00N 38°42' W 009°14'815.5
2017-Sep-17 14:30N 38°37' W 009°22'611.7
2017-Sep-17 14:00N 38°41' W 009°17'4 8.8
2017-Sep-17 13:30N 38°41' W 009°11'3 5.2
2017-Sep-17 13:00N 38°42' W 009°14'0 0.0
2017-Sep-17 12:30N 38°42' W 009°14'0 0.0
2017-Sep-17 12:00N 38°42' W 009°14'0 0.0
2017-Sep-17 11:30N 38°42' W 009°14'1 2.1
2017-Sep-17 11:00N 38°41' W 009°13'918.1
2017-Sep-17 10:30N 38°40' W 009°24'612.6
2017-Sep-17 10:00N 38°42' W 009°17'2 4.0
2017-Sep-17 09:30N 38°42' W 009°14'0 0.0
2017-Sep-17 09:00N 38°42' W 009°14'0 0.0
2017-Sep-17 08:30N 38°42' W 009°14'0 0.0
2017-Sep-17 08:00N 38°42' W 009°14'0 0.0
2017-Sep-17 07:30N 38°42' W 009°14'0 0.0
2017-Sep-17 07:00N 38°42' W 009°14'0 0.0
2017-Sep-16 23:03N 38°42' W 009°14'0 0.0
2017-Sep-16 23:00N 38°42' W 009°14'0 0.0
2017-Sep-16 22:30N 38°42' W 009°14'0 0.0
2017-Sep-16 22:00N 38°42' W 009°14'0 0.0
2017-Sep-16 21:30N 38°42' W 009°14'0 0.0
2017-Sep-16 21:00N 38°42' W 009°14'0 0.0
2017-Sep-16 20:30N 38°42' W 009°14'1 1.3
2017-Sep-16 20:00N 38°41' W 009°15'816.1
2017-Sep-16 19:30N 38°40' W 009°25'1 0.1
2017-Sep-16 09:09N 38°42' W 009°25'1 5.0
2017-Sep-16 09:00N 38°41' W 009°24'1 1.5
2017-Sep-16 08:30N 38°42' W 009°25'0 0.0
2017-Sep-16 08:00N 38°42' W 009°25'0 0.0
2017-Sep-16 07:30N 38°42' W 009°25'0 0.0
2017-Sep-16 07:00N 38°42' W 009°25'0 0.0
2017-Sep-16 06:30N 38°42' W 009°25'0 0.0
2017-Sep-16 06:00N 38°42' W 009°25'4 7.9
2017-Sep-16 05:30N 38°38' W 009°23'4 7.9
2017-Sep-16 05:01N 38°42' W 009°25'0 0.0
2017-Sep-15 22:10N 38°42' W 009°25'210.1
2017-Sep-15 22:00N 38°40' W 009°24'2 0.1
2017-Sep-15 10:18N 38°42' W 009°25'2 8.1
2017-Sep-15 10:01N 38°39' W 009°26'3 5.0
2017-Sep-15 09:30N 38°42' W 009°25'0 0.2
2017-Sep-15 09:01N 38°42' W 009°25'0 0.0
2017-Sep-15 08:30N 38°42' W 009°25'0 0.0
2017-Sep-15 08:01N 38°42' W 009°25'0 0.0
2017-Sep-15 07:31N 38°42' W 009°25'0 0.0
2017-Sep-15 07:00N 38°42' W 009°25'0 0.0
2017-Sep-15 06:30N 38°42' W 009°25'0 0.0
2017-Sep-15 06:00N 38°42' W 009°25'0 0.0
2017-Sep-15 05:30N 38°42' W 009°25'0 0.0
2017-Sep-15 05:00N 38°42' W 009°25'0 0.0
2017-Sep-15 04:30N 38°42' W 009°25'0 0.0
2017-Sep-15 04:01N 38°42' W 009°25'0 0.0
2017-Sep-15 03:31N 38°42' W 009°25'0 0.0
2017-Sep-15 03:01N 38°42' W 009°25'0 0.0
2017-Sep-15 02:31N 38°42' W 009°25'0 0.0
2017-Sep-15 02:01N 38°42' W 009°25'0 0.0
2017-Sep-15 01:30N 38°42' W 009°25'0 0.0
2017-Sep-15 01:01N 38°42' W 009°25'0 0.0
2017-Sep-15 00:29N 38°42' W 009°25'0 0.0
2017-Sep-15 00:00N 38°42' W 009°25'0 0.0
2017-Sep-14 23:30N 38°42' W 009°25'0 0.0
2017-Sep-14 23:00N 38°42' W 009°25'0 0.0
2017-Sep-14 22:30N 38°42' W 009°25'4 8.8
2017-Sep-14 22:00N 38°40' W 009°19'4 9.1
2017-Sep-14 21:30N 38°42' W 009°14'0 0.0
2017-Sep-14 21:00N 38°42' W 009°14'0 0.0
2017-Sep-14 20:29N 38°42' W 009°14'713.8
2017-Sep-14 20:00N 38°41' W 009°22'3 5.7
2017-Sep-14 19:26N 38°38' W 009°22'716.1
2017-Sep-14 19:00N 38°41' W 009°15'1 1.2
2017-Sep-14 18:30N 38°42' W 009°14'0 0.0
2017-Sep-14 18:00N 38°42' W 009°14'0 0.0
2017-Sep-14 17:30N 38°42' W 009°14'2 3.8
2017-Sep-14 17:00N 38°41' W 009°12'2 4.1
2017-Sep-14 16:31N 38°41' W 009°14'0 0.7
2017-Sep-14 16:00N 38°42' W 009°14'0 0.0
2017-Sep-14 15:30N 38°42' W 009°14'0 0.0
2017-Sep-14 15:00N 38°42' W 009°14'0 0.0
2017-Sep-14 14:29N 38°42' W 009°14'0 0.0
2017-Sep-14 14:00N 38°42' W 009°14'0 0.0
2017-Sep-14 13:30N 38°42' W 009°14'0 0.0
2017-Sep-14 13:00N 38°42' W 009°14'0 0.0
2017-Sep-14 12:30N 38°42' W 009°14'0 0.0
2017-Sep-14 12:00N 38°42' W 009°14'0 0.0
2017-Sep-14 11:27N 38°42' W 009°14'0 0.0
2017-Sep-14 10:59N 38°42' W 009°14'0 0.0
2017-Sep-14 10:31N 38°42' W 009°14'0 0.0
2017-Sep-14 10:00N 38°42' W 009°14'0 0.0
2017-Sep-14 09:29N 38°42' W 009°14'0 0.0
2017-Sep-14 08:59N 38°42' W 009°14'0 0.0
2017-Sep-14 08:29N 38°42' W 009°14'0 0.0
2017-Sep-14 08:00N 38°42' W 009°14'2 4.2
2017-Sep-14 07:30N 38°41' W 009°12'2 4.4
2017-Sep-14 07:00N 38°42' W 009°14'611.5
2017-Sep-14 06:31N 38°40' W 009°21'2 4.1
2017-Sep-14 06:00N 38°41' W 009°19'4 7.4
2017-Sep-14 05:30N 38°42' W 009°14'0 0.0
2017-Sep-14 05:00N 38°42' W 009°14'0 0.0
2017-Sep-14 04:30N 38°42' W 009°14'0 0.0
2017-Sep-14 03:59N 38°42' W 009°14'0 0.0
2017-Sep-14 03:30N 38°42' W 009°14'0 0.0
2017-Sep-14 03:00N 38°42' W 009°14'0 0.0
2017-Sep-14 02:30N 38°42' W 009°14'0 0.0
2017-Sep-14 02:00N 38°42' W 009°14'0 0.0
2017-Sep-14 01:30N 38°42' W 009°14'0 0.0
2017-Sep-14 01:00N 38°42' W 009°14'0 0.0
2017-Sep-14 00:30N 38°42' W 009°14'0 0.0
2017-Sep-14 00:00N 38°42' W 009°14'0 0.0
2017-Sep-13 23:30N 38°42' W 009°14'1 1.9
2017-Sep-13 23:00N 38°41' W 009°13'0 0.2
2017-Sep-13 22:30N 38°41' W 009°13'1 1.7
2017-Sep-13 22:00N 38°42' W 009°14'0 0.0
2017-Sep-13 21:31N 38°42' W 009°14'0 0.0
2017-Sep-13 21:01N 38°42' W 009°14'0 0.0
2017-Sep-13 20:30N 38°42' W 009°14'0 0.0
2017-Sep-13 20:00N 38°42' W 009°14'0 0.2
2017-Sep-13 19:30N 38°42' W 009°14'816.3
2017-Sep-13 19:00N 38°39' W 009°24'3 0.7
2017-Sep-13 14:34N 38°42' W 009°25'0 1.9
2017-Sep-13 14:30N 38°42' W 009°25'3 6.1
2017-Sep-13 14:00N 38°39' W 009°23'3 6.1
2017-Sep-13 13:31N 38°42' W 009°25'4 8.0
2017-Sep-13 13:00N 38°38' W 009°25'4 1.5
2017-Sep-13 10:15N 38°42' W 009°25'0 0.0
2017-Sep-13 10:00N 38°42' W 009°25'2 3.0
2017-Sep-13 09:30N 38°40' W 009°24'2 2.9
2017-Sep-13 09:00N 38°42' W 009°25'0 0.0
2017-Sep-13 06:00N 38°42' W 009°25'0 0.0
2017-Sep-12 22:51N 38°42' W 009°25'410.8
2017-Sep-12 22:30N 38°38' W 009°23'4 7.5
2017-Sep-12 22:00N 38°42' W 009°25'0 0.0
2017-Sep-12 20:05N 38°42' W 009°25'0 1.6
2017-Sep-12 20:00N 38°42' W 009°25'4 8.1
2017-Sep-12 19:30N 38°38' W 009°22'4 0.7
2017-Sep-12 13:55N 38°42' W 009°25'3 6.4
2017-Sep-12 13:30N 38°40' W 009°23'714.3
2017-Sep-12 13:00N 38°42' W 009°14'0 0.0
2017-Sep-12 12:30N 38°42' W 009°14'0 0.0
2017-Sep-12 12:00N 38°42' W 009°14'0 0.0
2017-Sep-12 11:29N 38°42' W 009°14'0 0.0
2017-Sep-12 11:00N 38°42' W 009°14'2 4.3
2017-Sep-12 10:30N 38°41' W 009°12'1 2.0
2017-Sep-12 10:00N 38°42' W 009°12'4 7.0
2017-Sep-12 09:27N 38°43' W 009°07'2 3.9
2017-Sep-12 08:58N 38°42' W 009°10'3 1.8
2017-Sep-12 07:00N 38°42' W 009°14'0 0.0
2017-Sep-12 06:30N 38°42' W 009°14'0 0.0
2017-Sep-12 06:01N 38°42' W 009°14'815.1
2017-Sep-12 05:30N 38°38' W 009°22'1 2.6
2017-Sep-12 05:01N 38°39' W 009°23'4 8.7
2017-Sep-12 04:31N 38°41' W 009°18'  

Dump ship's entire track history